»·PEaware :: N9622C KSNA-KBUR

N9622C :: KSNA-KBUR

FLIGHT INFORMATION

Flight Status: Arrived
Operator: Privately registered:
United States
More flights under this callsign
Pilot: Michael D. (17574)
Aircraft: CESSNA 172 SKYHAWK
(C172)
More flights by this aircraft type
Origin: KSNA John Wayne-Orange Co
United States
Destination: KBUR Bob Hope-Burbank
United States
More flights between these airports :: More routes between these airports
Route: +SLI V23 POPPR SMO125 SMO SMO311 SILEX
File this flight plan on PilotEdge
Remarks: CSTN1 - I-3
Altitude:
(Current/Filed)
4,000ft
Speed:
(Current/Filed)
115kts
Departed: 09-Jan-18 05:55 PM
Arrived: 09-Jan-18 06:34 PM
Distance/Time
Traveled:
40nm/0:39
Distance/Time
To Go:
Arrived

Flight Plot

Page will automatically refresh every two minutes.


Map Options




Map Legend


Flown Route
Filed Route
Departure Airport
Arrival Airport
Navaid (VOR, NDB)
Fix

Horizontal Profiles

Position Reports

Time Latitude Longitude Heading Altitude Ground
Speed
09-Jan-18 17:48 33.675956 -117.871155 218 60ft 0kts
09-Jan-18 17:49 33.675956 -117.871155 218 60ft 0kts
09-Jan-18 17:50 33.675956 -117.871155 218 60ft 0kts
09-Jan-18 17:51 33.675956 -117.871155 218 60ft 0kts
09-Jan-18 17:52 33.675956 -117.871155 218 60ft 0kts
09-Jan-18 17:53 33.675956 -117.871155 218 60ft 0kts
09-Jan-18 17:54 33.675956 -117.871155 218 60ft 0kts
09-Jan-18 17:55 33.675956 -117.871155 218 60ft 0kts
09-Jan-18 17:56 33.677870 -117.869001 23 60ft 25kts
09-Jan-18 17:57 33.681266 -117.866434 118 60ft 0kts
09-Jan-18 17:58 33.681266 -117.866435 118 60ft 0kts
09-Jan-18 17:59 33.681266 -117.866435 118 60ft 0kts
09-Jan-18 18:00 33.681266 -117.866435 118 60ft 0kts
09-Jan-18 18:01 33.679275 -117.866550 207 60ft 49kts
09-Jan-18 18:02 33.663309 -117.881696 229 859ft 80kts
09-Jan-18 18:03 33.651621 -117.904166 231 1781ft 80kts
09-Jan-18 18:04 33.639887 -117.926669 230 2641ft 80kts
09-Jan-18 18:05 33.630010 -117.945869 230 3347ft 81kts
09-Jan-18 18:06 33.623054 -117.977445 288 3998ft 120kts
09-Jan-18 18:07 33.637088 -118.008862 290 3998ft 128kts
09-Jan-18 18:08 33.656734 -118.052363 292 3990ft 127kts
09-Jan-18 18:09 33.671023 -118.083388 292 3992ft 127kts
09-Jan-18 18:10 33.690243 -118.125042 292 3988ft 112kts
09-Jan-18 18:11 33.707339 -118.147879 313 3986ft 109kts
09-Jan-18 18:12 33.733759 -118.174921 314 3988ft 106kts
09-Jan-18 18:13 33.752463 -118.194001 314 3987ft 105kts
09-Jan-18 18:14 33.776854 -118.218978 315 3986ft 126kts
09-Jan-18 18:15 33.804021 -118.246594 316 3967ft 129kts
09-Jan-18 18:21 33.956241 -118.401707 319 3980ft 107kts
09-Jan-18 18:22 33.978362 -118.426097 317 3976ft 108kts
09-Jan-18 18:23 34.001742 -118.448529 322 3973ft 108kts
09-Jan-18 18:24 34.026139 -118.469729 328 3971ft 108kts
09-Jan-18 18:25 34.051189 -118.489998 328 3970ft 108kts
09-Jan-18 18:26 34.076305 -118.510364 328 3969ft 109kts
09-Jan-18 18:27 34.101085 -118.530566 328 3969ft 109kts
09-Jan-18 18:28 34.124844 -118.549790 328 3970ft 110kts
09-Jan-18 18:29 34.149868 -118.570230 328 3979ft 110kts
09-Jan-18 18:30 34.176281 -118.592124 328 3978ft 118kts
09-Jan-18 18:31 34.204025 -118.600246 55 3881ft 109kts
09-Jan-18 18:32 34.200609 -118.564501 101 3076ft 110kts
09-Jan-18 18:33 34.199796 -118.530669 91 2974ft 94kts
09-Jan-18 18:34 34.199464 -118.499528 91 2975ft 94kts
09-Jan-18 18:35 34.199062 -118.468108 91 2535ft 95kts
09-Jan-18 18:36 34.198766 -118.440045 90 1936ft 76kts
09-Jan-18 18:37 34.198466 -118.414653 90 1515ft 74kts
09-Jan-18 18:38 34.198171 -118.390102 90 1126ft 73kts
09-Jan-18 18:39 34.197877 -118.366439 90 739ft 56kts
09-Jan-18 18:40 34.197073 -118.360295 182 738ft 0kts
09-Jan-18 18:41 34.196871 -118.363816 270 738ft 19kts
09-Jan-18 18:42 34.196338 -118.367676 298 738ft 5kts
09-Jan-18 18:43 34.196387 -118.367715 2 738ft 0kts
09-Jan-18 18:44 34.196387 -118.367715 2 738ft 0kts
09-Jan-18 18:45 34.196387 -118.367715 2 738ft 0kts
09-Jan-18 18:46 34.196387 -118.367715 2 738ft 0kts
09-Jan-18 18:47 34.196387 -118.367715 2 738ft 0kts
09-Jan-18 18:48 34.196387 -118.367715 2 738ft 0kts
09-Jan-18 18:49 34.196387 -118.367715 2 738ft 0kts
09-Jan-18 18:50 34.196387 -118.367715 2 738ft 0kts
09-Jan-18 18:51 34.196387 -118.367715 2 738ft 0kts
09-Jan-18 18:52 34.196387 -118.367715 2 738ft 0kts
09-Jan-18 18:53 34.196387 -118.367715 2 738ft 0kts
09-Jan-18 18:54 34.196387 -118.367715 2 738ft 0kts

Navigation Log

Ident Type
1. KSNA Airport
2. SLI Navaid
3. POPPR Fix
4. SMO Navaid
5. SILEX Fix
6. KBUR Airport